Time;durP1;ratioP1;P1;durP2;ratioP2;P2;SDS_P1;SDS_P2;PMS_P1;PMS_P2;Temp;Humidity;BMP_temperature;BMP_pressure;BME280_temperature;BME280_humidity;BME280_pressure;Samples;Min_cycle;Max_cycle;Signal;HPM_P1;HPM_P2
2023/03/06 00:01:10;;;;;;;1.88;1.67;;;6.10;99.90;;;;;;5032256;28;20279;-48
2023/03/06 00:03:40;;;;;;;2.63;1.90;;;6.10;99.90;;;;;;5036775;28;20727;-47
2023/03/06 00:06:09;;;;;;;3.17;2.50;;;6.10;99.90;;;;;;5014602;28;20226;-49
2023/03/06 00:08:37;;;;;;;2.92;2.63;;;6.10;99.90;;;;;;5034396;28;20201;-49
2023/03/06 00:11:06;;;;;;;3.03;2.08;;;6.10;99.90;;;;;;5038667;28;20280;-50
2023/03/06 00:13:35;;;;;;;2.40;2.15;;;6.10;99.90;;;;;;5047491;28;20274;-47
2023/03/06 00:16:05;;;;;;;2.17;1.70;;;6.10;99.90;;;;;;5034133;28;20801;-49
2023/03/06 00:18:34;;;;;;;2.78;1.98;;;6.10;99.90;;;;;;5040677;28;20198;-50
2023/03/06 00:21:07;;;;;;;2.95;2.25;;;6.10;99.90;;;;;;5055431;28;20200;-49
2023/03/06 00:23:36;;;;;;;3.72;2.88;;;6.10;99.90;;;;;;5034342;28;20230;-50
2023/03/06 00:26:07;;;;;;;2.92;2.63;;;6.10;99.90;;;;;;5041023;28;20310;-49
2023/03/06 00:28:38;;;;;;;3.15;2.00;;;6.10;99.90;;;;;;5036304;28;20229;-47
2023/03/06 00:31:07;;;;;;;2.15;1.92;;;6.00;99.90;;;;;;5033741;28;20219;-48
2023/03/06 00:33:36;;;;;;;3.38;2.38;;;6.10;99.90;;;;;;5040118;28;20188;-52
2023/03/06 00:36:07;;;;;;;2.80;2.17;;;6.10;99.90;;;;;;5028763;28;20218;-48
2023/03/06 00:38:36;;;;;;;3.58;2.40;;;6.10;99.90;;;;;;5023656;28;20245;-51
2023/03/06 00:41:09;;;;;;;2.40;1.85;;;6.00;99.90;;;;;;5025514;28;20190;-49
2023/03/06 00:43:38;;;;;;;3.00;2.30;;;6.00;99.90;;;;;;5026943;28;20201;-47
2023/03/06 00:46:08;;;;;;;2.85;2.47;;;6.00;99.90;;;;;;5025119;28;20222;-49
2023/03/06 00:48:37;;;;;;;2.90;2.50;;;6.10;99.90;;;;;;5024442;28;20189;-50
2023/03/06 00:51:07;;;;;;;2.25;1.95;;;6.00;99.90;;;;;;5026285;28;20202;-48
2023/03/06 00:53:37;;;;;;;3.95;3.33;;;6.10;99.90;;;;;;5042001;28;20217;-47
2023/03/06 00:56:07;;;;;;;2.45;2.15;;;6.00;99.90;;;;;;5024781;28;20306;-48
2023/03/06 00:58:37;;;;;;;3.60;3.13;;;6.00;99.90;;;;;;5034694;28;20228;-49
2023/03/06 01:01:06;;;;;;;3.90;2.50;;;6.00;99.90;;;;;;5025858;28;20730;-50
2023/03/06 01:03:35;;;;;;;2.80;1.67;;;6.10;99.90;;;;;;5025592;28;20265;-48
2023/03/06 01:06:03;;;;;;;3.80;3.25;;;6.00;99.90;;;;;;5030301;28;20671;-47
2023/03/06 01:08:37;;;;;;;2.40;2.20;;;6.00;99.90;;;;;;5023728;28;20190;-49
2023/03/06 01:11:06;;;;;;;4.30;3.05;;;6.10;99.90;;;;;;5026612;28;20285;-49
2023/03/06 01:13:34;;;;;;;3.00;2.60;;;6.00;99.90;;;;;;5039309;28;20216;-50
2023/03/06 01:16:09;;;;;;;3.10;2.55;;;6.00;99.90;;;;;;5023254;28;20253;-49
2023/03/06 01:18:38;;;;;;;2.72;2.10;;;6.00;99.90;;;;;;5030843;28;20212;-48
2023/03/06 01:21:07;;;;;;;4.32;3.30;;;6.10;99.90;;;;;;5027530;28;20294;-48
2023/03/06 01:23:38;;;;;;;3.00;2.63;;;6.00;99.90;;;;;;5025032;28;20253;-49
2023/03/06 01:26:07;;;;;;;2.88;2.30;;;6.00;99.90;;;;;;5027053;28;20194;-48
2023/03/06 01:28:37;;;;;;;2.90;2.50;;;6.00;99.90;;;;;;5028404;28;20191;-48
2023/03/06 01:31:07;;;;;;;5.03;2.60;;;6.00;99.90;;;;;;5024589;28;20546;-48
2023/03/06 01:33:36;;;;;;;6.32;4.80;;;6.00;99.90;;;;;;5031494;28;20237;-48
2023/03/06 01:36:06;;;;;;;4.70;3.63;;;6.00;99.90;;;;;;5029520;28;20264;-48
2023/03/06 01:38:37;;;;;;;3.92;2.80;;;6.00;99.90;;;;;;5041967;28;20197;-48
2023/03/06 01:41:06;;;;;;;3.83;2.33;;;6.00;99.90;;;;;;5028311;28;20281;-48
2023/03/06 01:43:37;;;;;;;3.85;3.10;;;6.00;99.90;;;;;;5025385;28;20683;-49
2023/03/06 01:46:32;;;;;;;3.90;3.35;;;6.00;99.90;;;;;;5020148;28;20222;-49
2023/03/06 01:49:04;;;;;;;3.63;2.47;;;6.00;99.90;;;;;;5022708;28;20671;-48
2023/03/06 01:51:37;;;;;;;3.90;3.05;;;6.00;99.90;;;;;;5025073;28;20250;-48
2023/03/06 01:54:13;;;;;;;3.60;2.03;;;6.00;99.90;;;;;;5026281;28;20192;-48
2023/03/06 01:56:44;;;;;;;3.47;3.00;;;6.00;99.90;;;;;;5026350;28;20238;-49
2023/03/06 01:59:13;;;;;;;5.95;4.20;;;6.00;99.90;;;;;;5018069;28;20191;-48
2023/03/06 02:01:44;;;;;;;4.78;3.03;;;6.00;99.90;;;;;;5022444;28;20702;-49
2023/03/06 02:04:16;;;;;;;2.65;2.35;;;6.00;99.90;;;;;;5028913;28;20699;-48
2023/03/06 02:06:44;;;;;;;3.88;3.42;;;6.00;99.90;;;;;;5021680;28;20223;-48
2023/03/06 02:09:15;;;;;;;6.05;3.90;;;6.00;99.90;;;;;;5023802;28;20194;-49
2023/03/06 02:11:45;;;;;;;4.97;3.53;;;6.00;99.90;;;;;;5021709;28;20246;-47
2023/03/06 02:14:16;;;;;;;4.90;4.13;;;6.00;99.90;;;;;;5023585;28;20225;-51
2023/03/06 02:16:45;;;;;;;4.00;3.10;;;6.00;99.90;;;;;;5024475;28;20253;-48
2023/03/06 02:19:30;;;;;;;4.03;2.95;;;6.00;99.90;;;;;;5025647;28;20617;-49
2023/03/06 02:21:59;;;;;;;3.15;2.72;;;6.00;99.90;;;;;;5024031;28;20692;-47
2023/03/06 02:24:39;;;;;;;6.07;4.40;;;6.00;99.90;;;;;;5029408;28;20208;-49
2023/03/06 02:27:13;;;;;;;3.92;2.80;;;6.00;99.90;;;;;;5031830;28;20599;-47
2023/03/06 02:29:43;;;;;;;3.45;2.35;;;6.00;99.90;;;;;;5027821;28;20598;-48
2023/03/06 02:32:12;;;;;;;4.75;2.47;;;6.00;99.90;;;;;;5029373;28;20224;-47
2023/03/06 02:34:53;;;;;;;3.33;2.28;;;6.00;99.90;;;;;;5025092;28;20199;-48
2023/03/06 02:37:23;;;;;;;4.30;3.60;;;6.00;99.90;;;;;;5030452;28;20213;-46
2023/03/06 02:40:08;;;;;;;3.05;2.75;;;6.00;99.90;;;;;;5029990;28;20226;-49
2023/03/06 02:42:38;;;;;;;6.75;4.57;;;6.00;99.90;;;;;;5041759;28;20214;-48
2023/03/06 02:45:10;;;;;;;2.75;2.42;;;6.00;99.90;;;;;;5030656;28;20364;-50
2023/03/06 02:47:39;;;;;;;3.17;2.75;;;6.00;99.90;;;;;;5028495;28;20794;-47
2023/03/06 02:50:09;;;;;;;3.17;2.70;;;6.00;99.90;;;;;;5029858;28;20197;-49
2023/03/06 02:52:38;;;;;;;3.22;2.90;;;6.00;99.90;;;;;;5036203;28;20600;-49
2023/03/06 02:55:07;;;;;;;3.92;3.22;;;6.00;99.90;;;;;;5023265;28;20240;-49
2023/03/06 02:57:37;;;;;;;3.95;2.97;;;6.00;99.90;;;;;;5032819;28;20219;-49
2023/03/06 03:00:07;;;;;;;4.03;3.63;;;6.00;99.90;;;;;;5029113;28;20726;-48
2023/03/06 03:02:36;;;;;;;3.55;2.78;;;6.00;99.90;;;;;;5035406;28;20299;-50
2023/03/06 03:05:06;;;;;;;3.53;2.58;;;6.00;99.90;;;;;;5039219;28;20220;-49
2023/03/06 03:07:35;;;;;;;3.58;3.28;;;6.00;99.90;;;;;;5039913;28;20241;-50
2023/03/06 03:10:05;;;;;;;4.53;3.10;;;6.00;99.90;;;;;;5027634;28;20651;-49
2023/03/06 03:12:34;;;;;;;5.75;4.00;;;6.00;99.90;;;;;;5022078;28;20277;-50
2023/03/06 03:15:04;;;;;;;5.25;4.25;;;6.00;99.90;;;;;;5024750;28;20686;-48
2023/03/06 03:17:35;;;;;;;4.43;3.40;;;6.00;99.90;;;;;;5026828;28;20305;-47
2023/03/06 03:20:05;;;;;;;3.85;3.22;;;6.00;99.90;;;;;;5029488;28;20603;-49
2023/03/06 03:22:34;;;;;;;3.67;3.38;;;6.00;99.90;;;;;;5021429;28;20225;-49
2023/03/06 03:25:03;;;;;;;5.47;3.70;;;6.00;99.90;;;;;;5025653;28;20222;-49
2023/03/06 03:27:32;;;;;;;4.80;4.30;;;6.00;99.90;;;;;;5027182;28;20226;-47
2023/03/06 03:30:01;;;;;;;4.60;2.72;;;6.00;99.90;;;;;;5025054;28;20269;-48
2023/03/06 03:32:31;;;;;;;4.40;3.92;;;6.00;99.90;;;;;;5020855;28;20709;-48
2023/03/06 03:35:00;;;;;;;3.63;2.60;;;6.00;99.90;;;;;;5021713;28;20586;-48
2023/03/06 03:37:30;;;;;;;2.65;2.45;;;5.90;99.90;;;;;;5025653;28;20603;-50
2023/03/06 03:40:00;;;;;;;6.18;3.20;;;5.90;99.90;;;;;;5024789;28;20281;-50
2023/03/06 03:42:29;;;;;;;4.20;2.60;;;6.00;99.90;;;;;;5021264;28;20257;-48
2023/03/06 03:44:58;;;;;;;4.57;3.20;;;6.00;99.90;;;;;;5025881;28;20211;-49
2023/03/06 03:47:27;;;;;;;3.13;2.80;;;6.00;99.90;;;;;;5026806;28;20246;-49
2023/03/06 03:49:57;;;;;;;3.63;3.15;;;5.90;99.90;;;;;;5028219;28;20242;-49
2023/03/06 03:52:26;;;;;;;3.40;3.10;;;6.00;99.90;;;;;;5025606;28;20218;-48
2023/03/06 03:54:55;;;;;;;3.20;2.90;;;6.00;99.90;;;;;;5027450;28;20256;-48
2023/03/06 03:57:24;;;;;;;3.30;3.00;;;5.90;99.90;;;;;;5023864;28;20237;-48
2023/03/06 03:59:55;;;;;;;5.35;4.07;;;5.90;99.90;;;;;;5018863;28;20210;-49
2023/03/06 04:02:40;;;;;;;2.80;2.47;;;6.00;99.90;;;;;;5017506;28;20259;-47
2023/03/06 04:05:32;;;;;;;4.18;3.03;;;6.00;99.90;;;;;;5026842;28;20297;-49
2023/03/06 04:08:02;;;;;;;4.43;3.38;;;5.90;99.90;;;;;;5026389;28;20234;-48
2023/03/06 04:10:33;;;;;;;3.70;2.53;;;5.90;99.90;;;;;;5024402;28;20264;-48
2023/03/06 04:13:02;;;;;;;3.75;2.63;;;5.90;99.90;;;;;;5022715;28;20213;-49
2023/03/06 04:15:34;;;;;;;4.25;3.08;;;5.90;99.90;;;;;;5026905;28;20191;-47
2023/03/06 04:18:04;;;;;;;3.58;3.25;;;5.90;99.90;;;;;;5024892;28;20294;-49
2023/03/06 04:20:34;;;;;;;5.78;3.22;;;6.00;99.90;;;;;;5027381;28;20201;-48
2023/03/06 04:23:05;;;;;;;5.60;3.85;;;5.90;99.90;;;;;;5032895;28;20222;-49
2023/03/06 04:25:33;;;;;;;5.05;3.30;;;5.90;99.90;;;;;;5031104;28;20213;-48
2023/03/06 04:28:05;;;;;;;3.90;2.70;;;5.90;99.90;;;;;;5029161;28;20204;-47
2023/03/06 04:30:35;;;;;;;4.10;3.58;;;5.90;99.90;;;;;;5035476;28;20222;-48
2023/03/06 04:33:04;;;;;;;3.80;3.03;;;5.90;99.90;;;;;;5032364;28;20667;-47
2023/03/06 04:35:36;;;;;;;4.32;3.08;;;5.90;99.90;;;;;;5040040;28;20562;-49
2023/03/06 04:38:10;;;;;;;5.10;4.35;;;5.90;99.90;;;;;;5025642;28;20204;-49
2023/03/06 04:40:38;;;;;;;6.97;5.18;;;5.90;99.90;;;;;;5027431;28;20219;-47
2023/03/06 04:43:07;;;;;;;7.45;4.57;;;5.90;99.90;;;;;;5053912;28;20275;-48
2023/03/06 04:45:36;;;;;;;4.50;3.47;;;5.90;99.90;;;;;;5026318;28;20658;-48
2023/03/06 04:48:05;;;;;;;5.38;3.95;;;5.90;99.90;;;;;;5024736;28;20244;-47
2023/03/06 04:50:36;;;;;;;5.90;4.28;;;5.90;99.90;;;;;;5035337;28;20261;-49
2023/03/06 04:53:05;;;;;;;4.55;3.78;;;5.90;99.90;;;;;;5027848;28;20229;-50
2023/03/06 04:55:34;;;;;;;6.28;4.63;;;5.90;99.90;;;;;;5027761;28;20778;-48
2023/03/06 04:58:02;;;;;;;4.78;3.60;;;5.90;99.90;;;;;;5029755;28;20195;-49
2023/03/06 05:00:31;;;;;;;8.05;5.68;;;5.90;99.90;;;;;;5038336;28;20711;-49
2023/03/06 05:03:01;;;;;;;5.18;4.13;;;5.90;99.90;;;;;;5021896;28;20234;-48
2023/03/06 05:05:31;;;;;;;5.57;3.97;;;5.90;99.90;;;;;;5031714;28;20634;-49
2023/03/06 05:08:01;;;;;;;3.90;3.35;;;5.90;99.90;;;;;;5022923;28;20403;-49
2023/03/06 05:10:32;;;;;;;5.03;3.45;;;5.90;99.90;;;;;;5031638;28;20198;-49
2023/03/06 05:13:01;;;;;;;8.57;6.40;;;5.90;99.90;;;;;;5031497;28;20272;-49
2023/03/06 05:15:30;;;;;;;7.15;5.28;;;5.90;99.90;;;;;;5021957;28;20202;-49
2023/03/06 05:17:59;;;;;;;5.85;3.65;;;5.90;99.90;;;;;;5017116;28;20523;-49
2023/03/06 05:20:28;;;;;;;3.70;3.08;;;5.90;99.90;;;;;;5020609;28;20196;-48
2023/03/06 05:22:57;;;;;;;7.18;4.82;;;5.90;99.90;;;;;;5015441;28;20228;-49
2023/03/06 05:25:27;;;;;;;7.43;4.20;;;5.90;99.90;;;;;;5020091;28;20222;-48
2023/03/06 05:27:57;;;;;;;7.03;5.43;;;5.90;99.90;;;;;;5025027;28;20288;-48
2023/03/06 05:30:26;;;;;;;6.20;4.38;;;5.80;99.90;;;;;;5023587;28;20198;-50
2023/03/06 05:32:54;;;;;;;4.35;3.70;;;5.90;99.90;;;;;;5021060;28;20235;-48
2023/03/06 05:35:24;;;;;;;5.35;4.40;;;5.90;99.90;;;;;;5020761;28;20691;-48
2023/03/06 05:37:53;;;;;;;6.32;4.30;;;5.90;99.90;;;;;;5025092;28;20679;-48
2023/03/06 05:40:22;;;;;;;5.95;3.92;;;5.90;99.90;;;;;;5025363;28;20195;-48
2023/03/06 05:42:52;;;;;;;5.80;4.50;;;5.90;99.90;;;;;;5026431;28;20237;-48
2023/03/06 05:45:21;;;;;;;4.28;3.20;;;5.90;99.90;;;;;;5028616;28;20583;-48
2023/03/06 05:47:49;;;;;;;5.93;3.78;;;5.90;99.90;;;;;;5023572;28;20221;-50
2023/03/06 05:50:18;;;;;;;6.15;4.72;;;5.90;99.90;;;;;;5026469;28;20294;-49
2023/03/06 05:52:46;;;;;;;5.07;3.70;;;5.90;99.90;;;;;;5022341;28;20239;-48
2023/03/06 05:55:15;;;;;;;5.28;4.10;;;5.90;99.90;;;;;;5030321;28;20201;-50
2023/03/06 05:57:44;;;;;;;5.90;4.22;;;5.80;99.90;;;;;;5028512;28;20225;-48
2023/03/06 06:00:16;;;;;;;5.25;4.35;;;5.80;99.90;;;;;;5031733;28;20200;-49
2023/03/06 06:02:45;;;;;;;5.95;4.00;;;5.90;99.90;;;;;;5023116;28;20746;-50
2023/03/06 06:05:14;;;;;;;4.25;3.85;;;5.90;99.90;;;;;;5030445;28;20201;-49
2023/03/06 06:07:42;;;;;;;5.13;3.65;;;5.90;99.90;;;;;;5027161;28;20214;-49
2023/03/06 06:10:13;;;;;;;4.70;3.42;;;5.90;99.90;;;;;;5030774;28;20274;-49
2023/03/06 06:12:42;;;;;;;5.88;4.43;;;5.90;99.90;;;;;;5025953;28;20250;-50
2023/03/06 06:15:11;;;;;;;4.60;3.72;;;5.90;99.90;;;;;;5028999;28;20280;-49
2023/03/06 06:17:41;;;;;;;5.88;4.03;;;5.90;99.90;;;;;;5021794;28;20249;-48
2023/03/06 06:20:12;;;;;;;7.35;5.43;;;5.90;99.90;;;;;;5030267;28;20204;-49
2023/03/06 06:22:41;;;;;;;5.13;3.65;;;5.90;99.90;;;;;;5018495;28;20215;-48
2023/03/06 06:25:10;;;;;;;6.55;4.30;;;5.80;99.90;;;;;;5010697;28;20508;-48
2023/03/06 06:27:39;;;;;;;6.38;4.97;;;5.90;99.90;;;;;;5021061;28;20218;-47
2023/03/06 06:30:11;;;;;;;7.55;4.47;;;5.80;99.90;;;;;;5029793;28;20452;-49
2023/03/06 06:32:42;;;;;;;4.50;3.80;;;5.90;99.90;;;;;;5017685;28;20234;-49
2023/03/06 06:35:11;;;;;;;6.03;4.45;;;5.90;99.90;;;;;;5043861;28;20186;-48
2023/03/06 06:37:39;;;;;;;5.25;4.13;;;5.90;99.90;;;;;;5020803;28;20233;-49
2023/03/06 06:40:10;;;;;;;5.10;3.88;;;5.80;99.90;;;;;;5021694;28;20675;-49
2023/03/06 06:42:40;;;;;;;8.90;6.10;;;5.80;99.90;;;;;;5016876;28;20252;-49
2023/03/06 06:45:11;;;;;;;7.13;4.50;;;5.80;99.90;;;;;;5016557;28;20195;-49
2023/03/06 06:47:42;;;;;;;5.00;3.70;;;5.80;99.90;;;;;;5021352;28;20214;-49
2023/03/06 06:50:13;;;;;;;5.75;4.43;;;5.80;99.90;;;;;;5024318;28;20680;-48
2023/03/06 06:52:42;;;;;;;8.60;6.03;;;5.80;99.90;;;;;;5017512;28;20245;-47
2023/03/06 06:55:12;;;;;;;4.97;3.70;;;5.80;99.90;;;;;;5029599;28;20198;-49
2023/03/06 06:57:42;;;;;;;5.55;4.38;;;5.80;99.90;;;;;;5017236;28;20207;-49
2023/03/06 07:00:14;;;;;;;5.32;4.10;;;5.80;99.90;;;;;;5022250;28;20656;-50
2023/03/06 07:02:47;;;;;;;6.03;4.60;;;5.80;99.90;;;;;;5015996;28;20226;-49
2023/03/06 07:05:18;;;;;;;6.68;4.38;;;5.80;99.90;;;;;;5028844;28;20250;-49
2023/03/06 07:07:50;;;;;;;8.55;4.50;;;5.80;99.90;;;;;;5019659;28;20225;-49
2023/03/06 07:10:20;;;;;;;6.20;5.18;;;5.80;99.90;;;;;;5032282;28;20216;-49
2023/03/06 07:12:49;;;;;;;6.57;4.47;;;5.80;99.90;;;;;;5026230;28;20225;-47
2023/03/06 07:15:18;;;;;;;5.43;3.65;;;5.80;99.90;;;;;;5028607;28;20195;-48
2023/03/06 07:17:49;;;;;;;6.00;3.90;;;5.80;99.90;;;;;;5026686;28;20243;-47
2023/03/06 07:20:18;;;;;;;8.45;6.22;;;5.80;99.90;;;;;;5031732;28;20190;-48
2023/03/06 07:22:48;;;;;;;7.40;4.90;;;5.80;99.90;;;;;;5029253;28;20314;-49
2023/03/06 07:25:20;;;;;;;4.45;3.80;;;5.80;99.90;;;;;;5029263;28;20234;-49
2023/03/06 07:27:51;;;;;;;8.60;5.68;;;5.80;99.90;;;;;;5035074;28;20218;-49
2023/03/06 07:30:23;;;;;;;5.40;4.25;;;5.80;99.90;;;;;;5028141;28;20189;-49
2023/03/06 07:32:57;;;;;;;6.65;4.80;;;5.80;99.90;;;;;;5029709;28;20725;-48
2023/03/06 07:35:27;;;;;;;5.45;4.15;;;5.80;99.90;;;;;;5026773;28;20193;-48
2023/03/06 07:37:56;;;;;;;8.05;5.03;;;5.80;99.90;;;;;;5009282;28;20740;-48
2023/03/06 07:40:26;;;;;;;6.32;4.68;;;5.80;99.90;;;;;;5010290;28;20222;-48
2023/03/06 07:42:56;;;;;;;7.22;5.65;;;5.80;99.90;;;;;;5008751;28;20269;-48
2023/03/06 07:45:48;;;;;;;7.07;4.47;;;5.80;99.90;;;;;;5003349;28;20215;-48
2023/03/06 07:48:18;;;;;;;8.50;5.20;;;5.80;99.90;;;;;;5004741;28;20593;-49
2023/03/06 07:50:55;;;;;;;6.40;4.78;;;5.80;99.90;;;;;;5005983;28;20198;-48
2023/03/06 07:53:25;;;;;;;6.07;4.43;;;5.80;99.90;;;;;;5022060;28;20219;-49
2023/03/06 07:55:55;;;;;;;6.97;4.95;;;5.80;99.90;;;;;;5025382;28;20684;-48
2023/03/06 07:58:24;;;;;;;6.30;5.00;;;5.80;99.90;;;;;;5023346;28;20249;-49
2023/03/06 08:00:53;;;;;;;6.85;4.82;;;5.80;99.90;;;;;;5029080;28;20250;-48
2023/03/06 08:03:24;;;;;;;5.68;4.95;;;5.80;99.90;;;;;;5022413;28;20213;-47
2023/03/06 08:05:55;;;;;;;7.63;5.00;;;5.80;99.90;;;;;;5024605;28;20234;-50
2023/03/06 08:08:27;;;;;;;7.53;5.75;;;5.80;99.90;;;;;;5037675;28;20233;-48
2023/03/06 08:10:56;;;;;;;6.60;4.70;;;5.80;99.90;;;;;;5027120;28;20224;-48
2023/03/06 08:13:24;;;;;;;10.85;6.25;;;5.80;99.90;;;;;;5028171;28;20276;-49
2023/03/06 08:15:53;;;;;;;10.65;5.75;;;5.80;99.90;;;;;;5046888;28;20219;-47
2023/03/06 08:18:24;;;;;;;7.85;6.30;;;5.80;99.90;;;;;;5038623;28;20267;-47
2023/03/06 08:21:02;;;;;;;5.63;4.50;;;5.80;99.90;;;;;;5019410;28;20225;-48
2023/03/06 08:23:32;;;;;;;8.02;5.63;;;5.80;99.90;;;;;;5018048;28;20197;-47
2023/03/06 08:26:04;;;;;;;8.73;6.05;;;5.80;99.90;;;;;;5042645;28;20221;-48
2023/03/06 08:28:33;;;;;;;9.77;6.97;;;5.80;99.90;;;;;;5020341;28;20222;-46
2023/03/06 08:31:10;;;;;;;8.50;6.30;;;5.80;99.90;;;;;;5020274;28;20209;-49
2023/03/06 08:33:44;;;;;;;11.55;8.30;;;5.80;99.90;;;;;;5022331;28;20520;-48
2023/03/06 08:36:13;;;;;;;15.32;11.38;;;5.80;99.90;;;;;;5028015;28;20214;-48
2023/03/06 08:38:42;;;;;;;11.77;8.52;;;5.80;99.90;;;;;;5019335;28;20191;-49
2023/03/06 08:41:11;;;;;;;11.38;8.88;;;5.80;99.90;;;;;;5025629;28;20734;-47
2023/03/06 08:43:40;;;;;;;14.52;8.77;;;5.80;99.90;;;;;;5022156;28;20194;-48
2023/03/06 08:46:10;;;;;;;14.98;8.55;;;5.80;99.90;;;;;;5027944;28;20217;-50
2023/03/06 08:48:39;;;;;;;15.75;9.60;;;5.80;99.90;;;;;;5019319;28;20218;-49
2023/03/06 08:51:10;;;;;;;10.63;7.90;;;5.80;99.90;;;;;;5025338;28;20244;-48
2023/03/06 08:53:39;;;;;;;12.02;8.73;;;5.80;99.90;;;;;;5033641;28;20194;-48
2023/03/06 08:56:17;;;;;;;13.90;9.25;;;5.80;99.90;;;;;;5026567;28;20317;-49
2023/03/06 08:58:46;;;;;;;9.25;7.45;;;5.80;99.90;;;;;;5020001;28;20602;-48
2023/03/06 09:01:16;;;;;;;12.88;8.60;;;5.80;99.90;;;;;;5041082;28;20588;-49
2023/03/06 09:03:45;;;;;;;12.60;8.70;;;5.70;99.90;;;;;;5024284;28;20198;-49
2023/03/06 09:06:17;;;;;;;10.15;7.50;;;5.80;99.90;;;;;;5022285;28;20622;-47
2023/03/06 09:08:51;;;;;;;13.27;9.20;;;5.70;99.90;;;;;;5005326;28;20222;-48
2023/03/06 09:11:23;;;;;;;12.73;8.30;;;5.70;99.90;;;;;;5026460;28;20218;-47
2023/03/06 09:13:53;;;;;;;12.35;7.95;;;5.80;99.90;;;;;;5043291;28;20198;-48
2023/03/06 09:16:23;;;;;;;9.50;6.68;;;5.80;99.90;;;;;;5022947;28;20232;-49
2023/03/06 09:18:56;;;;;;;11.85;7.50;;;5.80;99.90;;;;;;5017879;28;20731;-48
2023/03/06 09:21:27;;;;;;;13.70;6.95;;;5.80;99.90;;;;;;5024058;28;20821;-48
2023/03/06 09:23:57;;;;;;;11.52;8.02;;;5.80;99.90;;;;;;5019139;28;20194;-48
2023/03/06 09:26:27;;;;;;;10.07;6.95;;;5.80;99.90;;;;;;5023170;28;20222;-47
2023/03/06 09:29:14;;;;;;;13.05;8.88;;;5.80;99.90;;;;;;5003149;28;20687;-48
2023/03/06 09:31:44;;;;;;;11.50;7.80;;;5.80;99.90;;;;;;5017642;28;20230;-49
2023/03/06 09:34:14;;;;;;;13.25;7.60;;;5.80;99.90;;;;;;5023451;28;20181;-49
2023/03/06 09:36:45;;;;;;;9.77;6.68;;;5.80;99.90;;;;;;5026618;28;20202;-48
2023/03/06 09:39:25;;;;;;;9.70;6.80;;;5.80;99.90;;;;;;5026290;28;20211;-47
2023/03/06 09:41:57;;;;;;;9.93;7.13;;;5.80;99.90;;;;;;5020706;28;20257;-49
2023/03/06 09:44:28;;;;;;;9.95;6.65;;;5.80;99.90;;;;;;5020654;28;20656;-48
2023/03/06 09:47:22;;;;;;;11.80;7.00;;;5.80;99.90;;;;;;5023148;28;20218;-48
2023/03/06 09:50:14;;;;;;;11.13;7.50;;;5.80;99.90;;;;;;5036346;28;20659;-48
2023/03/06 09:52:57;;;;;;;8.90;7.18;;;5.80;99.90;;;;;;5013602;28;20288;-47
2023/03/06 09:55:27;;;;;;;12.13;8.57;;;5.80;99.90;;;;;;5023063;28;20268;-48
2023/03/06 09:58:01;;;;;;;12.02;8.05;;;5.80;99.90;;;;;;5024000;28;20207;-48
2023/03/06 10:00:37;;;;;;;10.02;7.35;;;5.80;99.90;;;;;;5039092;28;20194;-47
2023/03/06 10:03:21;;;;;;;7.60;6.40;;;5.80;99.90;;;;;;5029022;28;20585;-47
2023/03/06 10:05:53;;;;;;;9.18;6.15;;;5.80;99.90;;;;;;5045720;28;20199;-47
2023/03/06 10:08:29;;;;;;;8.57;6.65;;;5.80;99.90;;;;;;5038043;28;20293;-49
2023/03/06 10:11:02;;;;;;;9.77;7.10;;;5.80;99.90;;;;;;5008155;28;20221;-48
2023/03/06 10:13:40;;;;;;;11.68;7.45;;;5.80;99.90;;;;;;5026305;28;20216;-48
2023/03/06 10:16:28;;;;;;;11.23;6.57;;;5.80;99.90;;;;;;5026192;28;20240;-47
2023/03/06 10:19:02;;;;;;;10.00;6.30;;;5.80;99.90;;;;;;5026898;28;20205;-49
2023/03/06 10:21:45;;;;;;;8.70;6.57;;;5.80;99.90;;;;;;5025696;28;20275;-49
2023/03/06 10:24:35;;;;;;;9.88;7.20;;;5.80;99.90;;;;;;5010103;28;20217;-47
2023/03/06 10:27:16;;;;;;;11.25;7.30;;;5.80;99.90;;;;;;5020863;28;20249;-48
2023/03/06 10:29:55;;;;;;;10.02;6.22;;;5.80;99.90;;;;;;5021530;28;20221;-49
2023/03/06 10:32:40;;;;;;;8.02;5.88;;;5.80;99.90;;;;;;5019798;28;20794;-47
2023/03/06 10:35:21;;;;;;;11.48;7.28;;;5.80;99.90;;;;;;5023483;28;20659;-48
2023/03/06 10:37:51;;;;;;;9.02;6.32;;;5.80;99.90;;;;;;5022201;28;20248;-49
2023/03/06 10:40:34;;;;;;;8.02;5.53;;;5.80;99.90;;;;;;5023010;28;20288;-48
2023/03/06 10:43:09;;;;;;;8.95;6.72;;;5.80;99.90;;;;;;5026284;28;20242;-47
2023/03/06 10:45:51;;;;;;;10.15;6.22;;;5.80;99.90;;;;;;5024129;28;20222;-47
2023/03/06 10:48:22;;;;;;;7.90;6.43;;;5.90;99.90;;;;;;5018694;28;20219;-48
2023/03/06 10:50:52;;;;;;;10.15;6.28;;;5.80;99.90;;;;;;5021056;28;20208;-49
2023/03/06 10:53:24;;;;;;;9.73;6.25;;;5.90;99.90;;;;;;5028875;28;20194;-48
2023/03/06 10:55:57;;;;;;;9.85;6.55;;;5.80;99.90;;;;;;5024009;28;20202;-49
2023/03/06 10:58:28;;;;;;;10.65;6.70;;;5.80;99.90;;;;;;5027586;28;20656;-49
2023/03/06 11:01:03;;;;;;;8.05;5.20;;;5.90;99.90;;;;;;5025431;28;20229;-47
2023/03/06 11:03:32;;;;;;;8.55;6.25;;;5.90;99.90;;;;;;5029928;28;20240;-48
2023/03/06 11:06:07;;;;;;;10.63;6.75;;;5.80;99.90;;;;;;5026401;28;20203;-47
2023/03/06 11:08:41;;;;;;;9.05;6.80;;;5.90;99.90;;;;;;5025311;28;20210;-47
2023/03/06 11:11:14;;;;;;;10.15;7.07;;;5.90;99.90;;;;;;5025230;28;20270;-47
2023/03/06 11:13:58;;;;;;;7.45;5.63;;;5.80;99.90;;;;;;5021117;28;20229;-48
2023/03/06 11:16:29;;;;;;;9.07;6.97;;;5.80;99.90;;;;;;5009866;28;20194;-49
2023/03/06 11:19:00;;;;;;;11.00;7.53;;;5.90;99.90;;;;;;5026691;28;20196;-47
2023/03/06 11:21:30;;;;;;;9.02;6.60;;;5.80;99.90;;;;;;5024968;28;20902;-48
2023/03/06 11:24:06;;;;;;;9.25;6.65;;;5.80;99.90;;;;;;5025556;28;20195;-49
2023/03/06 11:26:44;;;;;;;9.07;6.55;;;5.90;99.90;;;;;;5025704;28;20257;-48
2023/03/06 11:29:35;;;;;;;8.95;5.90;;;5.80;99.90;;;;;;5028117;28;20211;-47
2023/03/06 11:32:12;;;;;;;8.38;6.50;;;5.80;99.90;;;;;;5029402;28;20313;-48
2023/03/06 11:34:47;;;;;;;8.38;6.40;;;5.80;99.90;;;;;;5012313;28;20203;-48
2023/03/06 11:37:39;;;;;;;7.85;6.10;;;5.80;99.90;;;;;;5019915;28;20238;-48
2023/03/06 11:40:20;;;;;;;7.80;5.80;;;5.80;99.90;;;;;;5028706;28;20190;-49
2023/03/06 11:42:59;;;;;;;11.18;7.28;;;5.90;99.90;;;;;;5017683;28;20218;-48
2023/03/06 11:45:33;;;;;;;9.00;6.15;;;5.80;99.90;;;;;;5021752;28;20194;-46
2023/03/06 11:48:19;;;;;;;9.30;6.80;;;5.80;99.90;;;;;;5022150;28;20226;-47
2023/03/06 11:50:50;;;;;;;8.55;6.32;;;5.80;99.90;;;;;;5025196;28;20194;-48
2023/03/06 11:53:21;;;;;;;10.23;6.68;;;5.80;99.90;;;;;;5038694;28;20534;-47
2023/03/06 11:55:59;;;;;;;10.82;6.70;;;5.80;99.90;;;;;;5036042;28;20194;-50
2023/03/06 11:58:54;;;;;;;8.05;6.18;;;5.80;99.90;;;;;;5038842;28;20202;-48
2023/03/06 12:01:27;;;;;;;9.93;6.25;;;5.80;99.90;;;;;;5003098;28;20290;-47
2023/03/06 12:04:32;;;;;;;9.15;6.57;;;5.80;99.90;;;;;;5034852;28;20718;-48
2023/03/06 12:07:11;;;;;;;9.98;6.70;;;5.80;99.90;;;;;;5051343;28;20249;-49
2023/03/06 12:09:46;;;;;;;7.63;5.50;;;5.80;99.90;;;;;;5051633;28;20194;-48
2023/03/06 12:12:30;;;;;;;9.07;6.05;;;5.80;99.90;;;;;;5029012;28;20707;-49
2023/03/06 12:15:22;;;;;;;8.13;5.88;;;5.80;99.90;;;;;;5035519;28;20222;-48
2023/03/06 12:18:08;;;;;;;7.13;5.38;;;5.80;99.90;;;;;;5026251;28;20251;-49
2023/03/06 12:21:00;;;;;;;10.00;6.85;;;5.80;99.90;;;;;;5036229;28;20186;-48
2023/03/06 12:23:53;;;;;;;8.40;5.90;;;5.80;99.90;;;;;;5037869;28;20242;-49
2023/03/06 12:26:40;;;;;;;7.80;5.90;;;5.80;99.90;;;;;;5032075;28;20205;-50
2023/03/06 12:29:19;;;;;;;8.70;7.40;;;5.80;99.90;;;;;;5026800;28;20288;-48
2023/03/06 12:32:07;;;;;;;9.48;6.32;;;5.80;99.90;;;;;;5028003;28;20265;-50
2023/03/06 12:34:50;;;;;;;9.20;6.50;;;5.80;99.90;;;;;;5027132;28;20206;-48
2023/03/06 12:37:26;;;;;;;8.63;6.25;;;5.80;99.90;;;;;;5024363;28;20317;-47
2023/03/06 12:40:21;;;;;;;7.10;5.88;;;5.80;99.90;;;;;;5022789;28;20725;-47
2023/03/06 12:43:17;;;;;;;8.57;6.82;;;5.80;99.90;;;;;;5019328;28;20233;-50
2023/03/06 12:45:48;;;;;;;8.00;6.22;;;5.80;99.90;;;;;;5014067;28;20190;-48
2023/03/06 12:48:23;;;;;;;10.77;6.93;;;5.80;99.90;;;;;;5021774;28;20250;-48
2023/03/06 12:50:53;;;;;;;7.55;6.03;;;5.80;99.90;;;;;;5021142;28;20210;-47
2023/03/06 12:53:27;;;;;;;8.65;5.65;;;5.80;99.90;;;;;;5035999;28;20201;-48
2023/03/06 12:55:57;;;;;;;9.02;6.65;;;5.80;99.90;;;;;;5025864;28;20204;-48
2023/03/06 12:58:46;;;;;;;9.60;7.07;;;5.80;99.90;;;;;;5028023;28;20198;-48
2023/03/06 13:01:37;;;;;;;9.68;6.60;;;5.80;99.90;;;;;;5024546;28;20237;-49
2023/03/06 13:04:28;;;;;;;6.68;5.30;;;5.80;99.90;;;;;;5029289;28;20690;-47
2023/03/06 13:07:07;;;;;;;9.27;6.53;;;5.90;99.90;;;;;;5045516;28;20227;-48
2023/03/06 13:09:55;;;;;;;8.88;6.15;;;5.90;99.90;;;;;;5022211;28;20206;-47
2023/03/06 13:12:35;;;;;;;7.00;5.60;;;5.90;99.90;;;;;;5023447;28;20580;-48
2023/03/06 13:15:44;;;;;;;9.18;6.03;;;5.90;99.90;;;;;;5022080;28;20199;-48
2023/03/06 13:18:50;;;;;;;9.65;6.68;;;5.80;99.90;;;;;;5019795;28;20594;-49
2023/03/06 13:22:07;;;;;;;8.35;6.28;;;5.80;99.90;;;;;;5019766;28;20209;-48
2023/03/06 13:24:38;;;;;;;8.70;5.85;;;5.80;99.90;;;;;;5021742;28;20194;-48
2023/03/06 13:27:08;;;;;;;8.65;5.95;;;5.90;99.90;;;;;;5016925;28;20647;-49